Atlantic Aquarius — VRDX6 — position and weather

sailwx.info

Track history (hours):
 
Tides and Currents Weather Stations Pressure Air Temp Water Temp Dewpoint Dewpoint Depression Visibility Wind Speed Wind Dir Waves Ship Positions

Atlantic Aquarius

Last reported at 2016-Jan-27 11:14 UTC. Time now 2016-Feb-13 21:25 UTC.
Position N 29°21' W 094°44'.
Warning: this ship's position is 17 days out of date.

Length 183 m; draft 10.7 m.

Type: Tanker. MMSI: 477071400.

Date/timePositionNaut miles runAvg speedWind from/ knotsBaromVisibWave heightAir tempDewpointWater temp
2016-Jan-27 11:14N 29°21' W 094°44'710.5
2016-Jan-27 10:33N 29°26' W 094°50'1111.0
2016-Jan-27 09:33N 29°35' W 094°56'10 9.9
2016-Jan-27 08:33N 29°44' W 095°02'6 5.4
2016-Jan-27 07:32N 29°44' W 095°08'2 0.0
2016-Jan-25 10:33N 29°45' W 095°10'4 3.7
2016-Jan-25 09:33N 29°45' W 095°06'5 5.4
2016-Jan-25 08:33N 29°42' W 095°01'1010.0
2016-Jan-25 07:33N 29°33' W 094°55'1313.5
2016-Jan-25 06:34N 29°22' W 094°48'1410.7
2016-Jan-25 05:16N 29°15' W 094°34'  
2016-Jan-21 03:33N 29°21' W 094°46'1111.4
2016-Jan-21 02:33N 29°30' W 094°52'1212.1
2016-Jan-21 01:34N 29°41' W 094°59'7 7.3
2016-Jan-21 00:34N 29°46' W 095°05'  
Track history (hours):
 
Tides and Currents Weather Stations Pressure Air Temp Water Temp Dewpoint Dewpoint Depression Visibility Wind Speed Wind Dir Waves Ship Positions

Atlantic Aquarius

Last reported at 2016-Jan-27 11:14 UTC. Time now 2016-Feb-13 21:25 UTC.
Position N 29°21' W 094°44'.
Warning: this ship's position is 17 days out of date.

Length 183 m; draft 10.7 m.

Type: Tanker. MMSI: 477071400.

Date/timePositionNaut miles runAvg speedWind from/ knotsBaromVisibWave heightAir tempDewpointWater temp
2016-Jan-27 11:14N 29°21' W 094°44'710.5
2016-Jan-27 10:33N 29°26' W 094°50'1111.0
2016-Jan-27 09:33N 29°35' W 094°56'10 9.9
2016-Jan-27 08:33N 29°44' W 095°02'6 5.4
2016-Jan-27 07:32N 29°44' W 095°08'2 0.0
2016-Jan-25 10:33N 29°45' W 095°10'4 3.7
2016-Jan-25 09:33N 29°45' W 095°06'5 5.4
2016-Jan-25 08:33N 29°42' W 095°01'1010.0
2016-Jan-25 07:33N 29°33' W 094°55'1313.5
2016-Jan-25 06:34N 29°22' W 094°48'1410.7
2016-Jan-25 05:16N 29°15' W 094°34'  
2016-Jan-21 03:33N 29°21' W 094°46'1111.4
2016-Jan-21 02:33N 29°30' W 094°52'1212.1
2016-Jan-21 01:34N 29°41' W 094°59'7 7.3
2016-Jan-21 00:34N 29°46' W 095°05'  

Dump ship's entire track history